sensor_id;sensor_type;location;lat;lon;timestamp;P1;durP1;ratioP1;P2;durP2;ratioP2
55756;SDS011;41676;44.610;44.078;2023-05-10T00:02:35;6.05;;;2.58;;
55756;SDS011;41676;44.610;44.078;2023-05-10T00:07:36;4.45;;;2.42;;
55756;SDS011;41676;44.610;44.078;2023-05-10T00:12:37;4.90;;;2.00;;
55756;SDS011;41676;44.610;44.078;2023-05-10T00:17:38;7.45;;;2.17;;
55756;SDS011;41676;44.610;44.078;2023-05-10T00:22:40;6.00;;;1.95;;
55756;SDS011;41676;44.610;44.078;2023-05-10T00:27:40;6.82;;;2.10;;
55756;SDS011;41676;44.610;44.078;2023-05-10T00:32:41;6.68;;;2.00;;
55756;SDS011;41676;44.610;44.078;2023-05-10T00:37:43;4.35;;;1.95;;
55756;SDS011;41676;44.610;44.078;2023-05-10T00:42:44;7.40;;;2.10;;
55756;SDS011;41676;44.610;44.078;2023-05-10T00:47:45;9.10;;;2.53;;
55756;SDS011;41676;44.610;44.078;2023-05-10T00:52:45;5.93;;;2.05;;
55756;SDS011;41676;44.610;44.078;2023-05-10T00:57:46;6.60;;;2.20;;
55756;SDS011;41676;44.610;44.078;2023-05-10T01:02:47;7.20;;;2.15;;
55756;SDS011;41676;44.610;44.078;2023-05-10T01:07:49;3.67;;;2.20;;
55756;SDS011;41676;44.610;44.078;2023-05-10T01:12:50;4.88;;;2.60;;
55756;SDS011;41676;44.610;44.078;2023-05-10T01:17:51;15.35;;;2.88;;
55756;SDS011;41676;44.610;44.078;2023-05-10T01:23:02;5.63;;;1.83;;
55756;SDS011;41676;44.610;44.078;2023-05-10T01:33:55;3.67;;;2.13;;
55756;SDS011;41676;44.610;44.078;2023-05-10T01:44:24;10.27;;;2.08;;
55756;SDS011;41676;44.610;44.078;2023-05-10T01:49:41;6.38;;;2.33;;
55756;SDS011;41676;44.610;44.078;2023-05-10T01:54:50;19.30;;;2.97;;
55756;SDS011;41676;44.610;44.078;2023-05-10T01:59:56;7.35;;;2.60;;
55756;SDS011;41676;44.610;44.078;2023-05-10T02:05:00;12.05;;;2.35;;
55756;SDS011;41676;44.610;44.078;2023-05-10T02:10:04;11.10;;;2.67;;
55756;SDS011;41676;44.610;44.078;2023-05-10T02:15:07;10.18;;;2.00;;
55756;SDS011;41676;44.610;44.078;2023-05-10T02:20:10;7.80;;;2.38;;
55756;SDS011;41676;44.610;44.078;2023-05-10T02:25:13;11.57;;;2.70;;
55756;SDS011;41676;44.610;44.078;2023-05-10T02:30:15;7.90;;;2.63;;
55756;SDS011;41676;44.610;44.078;2023-05-10T02:35:18;7.63;;;2.03;;
55756;SDS011;41676;44.610;44.078;2023-05-10T02:40:19;9.98;;;2.40;;
55756;SDS011;41676;44.610;44.078;2023-05-10T02:45:23;13.70;;;2.88;;
55756;SDS011;41676;44.610;44.078;2023-05-10T02:50:28;11.43;;;2.47;;
55756;SDS011;41676;44.610;44.078;2023-05-10T03:00:39;14.27;;;2.40;;
55756;SDS011;41676;44.610;44.078;2023-05-10T03:05:40;4.45;;;2.08;;
55756;SDS011;41676;44.610;44.078;2023-05-10T03:11:07;10.25;;;2.60;;
55756;SDS011;41676;44.610;44.078;2023-05-10T03:16:10;11.10;;;2.60;;
55756;SDS011;41676;44.610;44.078;2023-05-10T03:21:15;7.82;;;2.50;;
55756;SDS011;41676;44.610;44.078;2023-05-10T03:26:23;7.05;;;2.45;;
55756;SDS011;41676;44.610;44.078;2023-05-10T03:31:28;7.28;;;2.08;;
55756;SDS011;41676;44.610;44.078;2023-05-10T03:36:29;14.35;;;2.50;;
55756;SDS011;41676;44.610;44.078;2023-05-10T03:41:30;12.48;;;2.92;;
55756;SDS011;41676;44.610;44.078;2023-05-10T03:46:30;20.92;;;2.88;;
55756;SDS011;41676;44.610;44.078;2023-05-10T03:51:31;5.90;;;1.85;;
55756;SDS011;41676;44.610;44.078;2023-05-10T03:56:32;5.95;;;1.95;;
55756;SDS011;41676;44.610;44.078;2023-05-10T04:01:33;6.10;;;2.15;;
55756;SDS011;41676;44.610;44.078;2023-05-10T04:06:34;6.47;;;2.25;;
55756;SDS011;41676;44.610;44.078;2023-05-10T04:11:35;6.88;;;2.00;;
55756;SDS011;41676;44.610;44.078;2023-05-10T04:16:36;7.60;;;1.90;;
55756;SDS011;41676;44.610;44.078;2023-05-10T04:21:37;6.72;;;1.60;;
55756;SDS011;41676;44.610;44.078;2023-05-10T04:26:37;11.13;;;2.13;;
55756;SDS011;41676;44.610;44.078;2023-05-10T04:31:38;3.78;;;1.42;;
55756;SDS011;41676;44.610;44.078;2023-05-10T04:36:39;9.70;;;1.90;;
55756;SDS011;41676;44.610;44.078;2023-05-10T04:41:40;5.30;;;1.50;;
55756;SDS011;41676;44.610;44.078;2023-05-10T04:46:41;4.00;;;1.42;;
55756;SDS011;41676;44.610;44.078;2023-05-10T04:51:42;5.38;;;1.55;;
55756;SDS011;41676;44.610;44.078;2023-05-10T04:56:43;13.23;;;1.83;;
55756;SDS011;41676;44.610;44.078;2023-05-10T05:01:43;4.60;;;1.73;;
55756;SDS011;41676;44.610;44.078;2023-05-10T05:06:44;6.78;;;1.70;;
55756;SDS011;41676;44.610;44.078;2023-05-10T05:11:45;6.43;;;1.30;;
55756;SDS011;41676;44.610;44.078;2023-05-10T05:16:46;5.55;;;1.70;;
55756;SDS011;41676;44.610;44.078;2023-05-10T05:21:47;4.13;;;1.30;;
55756;SDS011;41676;44.610;44.078;2023-05-10T05:26:47;6.78;;;1.70;;
55756;SDS011;41676;44.610;44.078;2023-05-10T05:31:48;5.40;;;1.48;;
55756;SDS011;41676;44.610;44.078;2023-05-10T05:36:49;4.93;;;1.65;;
55756;SDS011;41676;44.610;44.078;2023-05-10T05:41:51;6.45;;;1.50;;
55756;SDS011;41676;44.610;44.078;2023-05-10T05:46:51;12.63;;;1.67;;
55756;SDS011;41676;44.610;44.078;2023-05-10T05:51:52;16.10;;;2.17;;
55756;SDS011;41676;44.610;44.078;2023-05-10T05:56:54;24.65;;;2.40;;
55756;SDS011;41676;44.610;44.078;2023-05-10T06:01:55;7.18;;;1.38;;
55756;SDS011;41676;44.610;44.078;2023-05-10T06:06:56;5.15;;;1.55;;
55756;SDS011;41676;44.610;44.078;2023-05-10T06:11:57;8.02;;;1.88;;
55756;SDS011;41676;44.610;44.078;2023-05-10T06:16:58;16.42;;;1.90;;
55756;SDS011;41676;44.610;44.078;2023-05-10T06:22:00;11.60;;;1.52;;
55756;SDS011;41676;44.610;44.078;2023-05-10T06:27:01;10.18;;;1.55;;
55756;SDS011;41676;44.610;44.078;2023-05-10T06:32:02;12.20;;;1.60;;
55756;SDS011;41676;44.610;44.078;2023-05-10T06:37:03;6.10;;;1.63;;
55756;SDS011;41676;44.610;44.078;2023-05-10T06:42:04;6.78;;;1.70;;
55756;SDS011;41676;44.610;44.078;2023-05-10T06:47:05;7.85;;;1.55;;
55756;SDS011;41676;44.610;44.078;2023-05-10T06:52:06;6.40;;;1.50;;
55756;SDS011;41676;44.610;44.078;2023-05-10T06:57:06;4.32;;;1.48;;
55756;SDS011;41676;44.610;44.078;2023-05-10T07:02:07;15.10;;;1.83;;
55756;SDS011;41676;44.610;44.078;2023-05-10T07:07:08;8.52;;;1.88;;
55756;SDS011;41676;44.610;44.078;2023-05-10T07:12:09;9.38;;;1.90;;
55756;SDS011;41676;44.610;44.078;2023-05-10T07:17:10;10.85;;;2.00;;
55756;SDS011;41676;44.610;44.078;2023-05-10T07:22:10;7.93;;;1.70;;
55756;SDS011;41676;44.610;44.078;2023-05-10T07:27:11;28.88;;;2.38;;
55756;SDS011;41676;44.610;44.078;2023-05-10T07:32:13;10.35;;;2.13;;
55756;SDS011;41676;44.610;44.078;2023-05-10T07:37:13;13.52;;;2.15;;
55756;SDS011;41676;44.610;44.078;2023-05-10T07:42:14;7.10;;;1.67;;
55756;SDS011;41676;44.610;44.078;2023-05-10T07:47:15;7.95;;;1.70;;
55756;SDS011;41676;44.610;44.078;2023-05-10T07:52:16;11.63;;;2.00;;
55756;SDS011;41676;44.610;44.078;2023-05-10T07:57:20;19.23;;;2.30;;
55756;SDS011;41676;44.610;44.078;2023-05-10T08:02:20;5.40;;;2.08;;
55756;SDS011;41676;44.610;44.078;2023-05-10T08:07:21;7.13;;;2.75;;
55756;SDS011;41676;44.610;44.078;2023-05-10T08:12:23;8.02;;;2.47;;
55756;SDS011;41676;44.610;44.078;2023-05-10T08:17:23;5.72;;;1.77;;
55756;SDS011;41676;44.610;44.078;2023-05-10T08:22:24;11.73;;;2.20;;
55756;SDS011;41676;44.610;44.078;2023-05-10T08:27:26;8.60;;;2.15;;
55756;SDS011;41676;44.610;44.078;2023-05-10T08:32:26;8.10;;;1.88;;
55756;SDS011;41676;44.610;44.078;2023-05-10T08:37:29;13.27;;;2.10;;
55756;SDS011;41676;44.610;44.078;2023-05-10T08:42:30;14.30;;;2.95;;
55756;SDS011;41676;44.610;44.078;2023-05-10T08:47:37;54.88;;;3.10;;
55756;SDS011;41676;44.610;44.078;2023-05-10T08:52:39;12.07;;;1.80;;
55756;SDS011;41676;44.610;44.078;2023-05-10T08:57:50;33.17;;;3.58;;
55756;SDS011;41676;44.610;44.078;2023-05-10T09:02:52;10.57;;;2.17;;
55756;SDS011;41676;44.610;44.078;2023-05-10T09:07:54;11.52;;;2.03;;
55756;SDS011;41676;44.610;44.078;2023-05-10T09:12:55;14.45;;;2.53;;
55756;SDS011;41676;44.610;44.078;2023-05-10T09:17:57;6.43;;;1.63;;
55756;SDS011;41676;44.610;44.078;2023-05-10T09:22:59;8.82;;;2.25;;
55756;SDS011;41676;44.610;44.078;2023-05-10T09:28:00;19.10;;;2.38;;
55756;SDS011;41676;44.610;44.078;2023-05-10T09:33:01;8.15;;;2.50;;
55756;SDS011;41676;44.610;44.078;2023-05-10T09:38:03;6.63;;;2.00;;
55756;SDS011;41676;44.610;44.078;2023-05-10T09:43:07;6.40;;;1.88;;
55756;SDS011;41676;44.610;44.078;2023-05-10T09:48:08;12.88;;;2.17;;
55756;SDS011;41676;44.610;44.078;2023-05-10T09:53:08;7.93;;;1.65;;
55756;SDS011;41676;44.610;44.078;2023-05-10T09:58:09;18.83;;;3.08;;
55756;SDS011;41676;44.610;44.078;2023-05-10T10:03:14;9.95;;;2.40;;
55756;SDS011;41676;44.610;44.078;2023-05-10T10:08:18;18.60;;;2.20;;
55756;SDS011;41676;44.610;44.078;2023-05-10T10:13:20;9.25;;;1.73;;
55756;SDS011;41676;44.610;44.078;2023-05-10T10:18:21;17.98;;;3.17;;
55756;SDS011;41676;44.610;44.078;2023-05-10T10:23:27;10.30;;;2.08;;
55756;SDS011;41676;44.610;44.078;2023-05-10T10:28:34;17.83;;;2.10;;
55756;SDS011;41676;44.610;44.078;2023-05-10T10:39:08;10.35;;;1.95;;
55756;SDS011;41676;44.610;44.078;2023-05-10T10:49:26;43.03;;;2.53;;
55756;SDS011;41676;44.610;44.078;2023-05-10T10:54:27;32.70;;;16.45;;
55756;SDS011;41676;44.610;44.078;2023-05-10T10:59:28;33.35;;;11.23;;
55756;SDS011;41676;44.610;44.078;2023-05-10T11:04:31;7.20;;;3.03;;
55756;SDS011;41676;44.610;44.078;2023-05-10T11:09:43;11.65;;;1.95;;
55756;SDS011;41676;44.610;44.078;2023-05-10T11:14:49;6.05;;;2.22;;
55756;SDS011;41676;44.610;44.078;2023-05-10T11:20:07;7.10;;;2.03;;
55756;SDS011;41676;44.610;44.078;2023-05-10T11:25:10;13.38;;;2.25;;
55756;SDS011;41676;44.610;44.078;2023-05-10T11:30:11;8.23;;;2.55;;
55756;SDS011;41676;44.610;44.078;2023-05-10T11:35:13;10.38;;;2.55;;
55756;SDS011;41676;44.610;44.078;2023-05-10T11:40:14;8.98;;;1.90;;
55756;SDS011;41676;44.610;44.078;2023-05-10T11:45:14;11.57;;;2.35;;
55756;SDS011;41676;44.610;44.078;2023-05-10T11:50:15;31.85;;;2.63;;
55756;SDS011;41676;44.610;44.078;2023-05-10T11:55:17;29.23;;;2.58;;
55756;SDS011;41676;44.610;44.078;2023-05-10T12:00:18;10.35;;;2.00;;
55756;SDS011;41676;44.610;44.078;2023-05-10T12:05:20;12.73;;;2.90;;
55756;SDS011;41676;44.610;44.078;2023-05-10T12:10:25;12.32;;;2.65;;
55756;SDS011;41676;44.610;44.078;2023-05-10T12:15:27;20.33;;;5.95;;
55756;SDS011;41676;44.610;44.078;2023-05-10T12:20:28;11.40;;;3.03;;
55756;SDS011;41676;44.610;44.078;2023-05-10T12:25:29;13.10;;;2.05;;
55756;SDS011;41676;44.610;44.078;2023-05-10T12:30:32;5.88;;;1.98;;
55756;SDS011;41676;44.610;44.078;2023-05-10T12:35:48;14.45;;;3.10;;
55756;SDS011;41676;44.610;44.078;2023-05-10T12:40:51;19.38;;;4.32;;
55756;SDS011;41676;44.610;44.078;2023-05-10T12:45:52;15.00;;;4.72;;
55756;SDS011;41676;44.610;44.078;2023-05-10T12:50:52;8.60;;;1.67;;
55756;SDS011;41676;44.610;44.078;2023-05-10T12:55:53;18.65;;;2.10;;
55756;SDS011;41676;44.610;44.078;2023-05-10T13:00:54;26.92;;;2.92;;
55756;SDS011;41676;44.610;44.078;2023-05-10T13:05:56;6.30;;;1.90;;
55756;SDS011;41676;44.610;44.078;2023-05-10T13:10:57;8.52;;;1.95;;
55756;SDS011;41676;44.610;44.078;2023-05-10T13:15:58;8.95;;;2.45;;
55756;SDS011;41676;44.610;44.078;2023-05-10T13:20:58;5.20;;;2.30;;
55756;SDS011;41676;44.610;44.078;2023-05-10T13:26:00;18.02;;;5.47;;
55756;SDS011;41676;44.610;44.078;2023-05-10T13:31:02;8.93;;;2.83;;
55756;SDS011;41676;44.610;44.078;2023-05-10T13:36:02;8.07;;;2.58;;
55756;SDS011;41676;44.610;44.078;2023-05-10T13:41:04;6.18;;;2.22;;
55756;SDS011;41676;44.610;44.078;2023-05-10T13:46:04;9.43;;;2.60;;
55756;SDS011;41676;44.610;44.078;2023-05-10T13:51:05;13.40;;;2.00;;
55756;SDS011;41676;44.610;44.078;2023-05-10T13:56:06;17.27;;;3.83;;
55756;SDS011;41676;44.610;44.078;2023-05-10T14:01:07;8.45;;;2.10;;
55756;SDS011;41676;44.610;44.078;2023-05-10T14:06:08;7.75;;;2.03;;
55756;SDS011;41676;44.610;44.078;2023-05-10T14:11:09;9.18;;;2.10;;
55756;SDS011;41676;44.610;44.078;2023-05-10T14:16:09;9.63;;;1.83;;
55756;SDS011;41676;44.610;44.078;2023-05-10T14:21:10;12.05;;;1.90;;
55756;SDS011;41676;44.610;44.078;2023-05-10T14:26:12;7.78;;;2.03;;
55756;SDS011;41676;44.610;44.078;2023-05-10T14:31:13;8.40;;;1.27;;
55756;SDS011;41676;44.610;44.078;2023-05-10T14:36:14;10.38;;;1.95;;
55756;SDS011;41676;44.610;44.078;2023-05-10T14:41:15;5.93;;;1.55;;
55756;SDS011;41676;44.610;44.078;2023-05-10T14:46:17;10.77;;;2.00;;
55756;SDS011;41676;44.610;44.078;2023-05-10T14:51:18;9.70;;;1.52;;
55756;SDS011;41676;44.610;44.078;2023-05-10T14:56:21;10.52;;;2.20;;
55756;SDS011;41676;44.610;44.078;2023-05-10T15:01:22;13.60;;;2.28;;
55756;SDS011;41676;44.610;44.078;2023-05-10T15:06:23;11.38;;;3.53;;
55756;SDS011;41676;44.610;44.078;2023-05-10T15:11:31;23.52;;;5.63;;
55756;SDS011;41676;44.610;44.078;2023-05-10T15:16:32;20.38;;;10.38;;
55756;SDS011;41676;44.610;44.078;2023-05-10T15:21:33;11.85;;;3.50;;
55756;SDS011;41676;44.610;44.078;2023-05-10T15:26:38;20.73;;;7.75;;
55756;SDS011;41676;44.610;44.078;2023-05-10T15:31:39;19.52;;;5.13;;
55756;SDS011;41676;44.610;44.078;2023-05-10T15:36:42;8.10;;;2.55;;
55756;SDS011;41676;44.610;44.078;2023-05-10T15:41:42;10.35;;;2.42;;
55756;SDS011;41676;44.610;44.078;2023-05-10T15:46:43;9.65;;;2.47;;
55756;SDS011;41676;44.610;44.078;2023-05-10T15:51:44;12.52;;;1.77;;
55756;SDS011;41676;44.610;44.078;2023-05-10T15:56:45;7.90;;;1.70;;
55756;SDS011;41676;44.610;44.078;2023-05-10T16:01:46;8.10;;;1.90;;
55756;SDS011;41676;44.610;44.078;2023-05-10T16:06:47;10.23;;;1.90;;
55756;SDS011;41676;44.610;44.078;2023-05-10T16:11:48;4.95;;;1.80;;
55756;SDS011;41676;44.610;44.078;2023-05-10T16:16:49;12.38;;;2.13;;
55756;SDS011;41676;44.610;44.078;2023-05-10T16:21:50;7.45;;;2.00;;
55756;SDS011;41676;44.610;44.078;2023-05-10T16:26:51;6.75;;;2.13;;
55756;SDS011;41676;44.610;44.078;2023-05-10T16:31:52;14.60;;;2.75;;
55756;SDS011;41676;44.610;44.078;2023-05-10T16:36:53;8.52;;;3.05;;
55756;SDS011;41676;44.610;44.078;2023-05-10T16:41:53;12.63;;;4.03;;
55756;SDS011;41676;44.610;44.078;2023-05-10T16:46:54;8.98;;;2.58;;
55756;SDS011;41676;44.610;44.078;2023-05-10T16:51:55;9.98;;;3.28;;
55756;SDS011;41676;44.610;44.078;2023-05-10T16:56:56;12.75;;;4.78;;
55756;SDS011;41676;44.610;44.078;2023-05-10T17:01:57;25.52;;;11.25;;
55756;SDS011;41676;44.610;44.078;2023-05-10T17:06:57;19.30;;;6.38;;
55756;SDS011;41676;44.610;44.078;2023-05-10T17:11:58;9.52;;;3.67;;
55756;SDS011;41676;44.610;44.078;2023-05-10T17:16:59;6.57;;;2.47;;
55756;SDS011;41676;44.610;44.078;2023-05-10T17:22:00;5.25;;;2.53;;
55756;SDS011;41676;44.610;44.078;2023-05-10T17:27:00;6.55;;;2.30;;
55756;SDS011;41676;44.610;44.078;2023-05-10T17:32:02;10.20;;;2.72;;
55756;SDS011;41676;44.610;44.078;2023-05-10T17:37:03;5.30;;;1.90;;
55756;SDS011;41676;44.610;44.078;2023-05-10T17:42:04;8.48;;;2.30;;
55756;SDS011;41676;44.610;44.078;2023-05-10T17:47:05;7.68;;;2.25;;
55756;SDS011;41676;44.610;44.078;2023-05-10T17:52:06;6.03;;;1.98;;
55756;SDS011;41676;44.610;44.078;2023-05-10T17:57:07;3.65;;;2.28;;
55756;SDS011;41676;44.610;44.078;2023-05-10T18:02:08;4.75;;;2.15;;
55756;SDS011;41676;44.610;44.078;2023-05-10T18:07:08;6.43;;;2.25;;
55756;SDS011;41676;44.610;44.078;2023-05-10T18:12:09;4.85;;;2.35;;
55756;SDS011;41676;44.610;44.078;2023-05-10T18:17:10;8.60;;;2.60;;
55756;SDS011;41676;44.610;44.078;2023-05-10T18:22:11;4.80;;;2.40;;
55756;SDS011;41676;44.610;44.078;2023-05-10T18:27:12;4.78;;;2.20;;
55756;SDS011;41676;44.610;44.078;2023-05-10T18:32:12;3.35;;;1.52;;
55756;SDS011;41676;44.610;44.078;2023-05-10T18:37:13;3.30;;;1.10;;
55756;SDS011;41676;44.610;44.078;2023-05-10T18:42:14;4.53;;;1.10;;
55756;SDS011;41676;44.610;44.078;2023-05-10T18:47:15;15.98;;;0.80;;
55756;SDS011;41676;44.610;44.078;2023-05-10T18:52:16;3.95;;;0.50;;
55756;SDS011;41676;44.610;44.078;2023-05-10T18:57:17;7.70;;;0.60;;
55756;SDS011;41676;44.610;44.078;2023-05-10T19:02:20;1.63;;;0.30;;
55756;SDS011;41676;44.610;44.078;2023-05-10T19:07:21;2.47;;;0.70;;
55756;SDS011;41676;44.610;44.078;2023-05-10T19:12:22;6.72;;;0.40;;
55756;SDS011;41676;44.610;44.078;2023-05-10T19:17:22;1.20;;;0.50;;
55756;SDS011;41676;44.610;44.078;2023-05-10T19:22:23;1.42;;;0.40;;
55756;SDS011;41676;44.610;44.078;2023-05-10T19:27:24;1.23;;;0.70;;
55756;SDS011;41676;44.610;44.078;2023-05-10T19:32:25;1.95;;;0.40;;
55756;SDS011;41676;44.610;44.078;2023-05-10T19:37:25;1.77;;;0.32;;
55756;SDS011;41676;44.610;44.078;2023-05-10T19:42:26;2.60;;;0.50;;
55756;SDS011;41676;44.610;44.078;2023-05-10T19:47:27;1.77;;;0.38;;
55756;SDS011;41676;44.610;44.078;2023-05-10T19:52:28;0.60;;;0.32;;
55756;SDS011;41676;44.610;44.078;2023-05-10T19:57:29;0.65;;;0.20;;
55756;SDS011;41676;44.610;44.078;2023-05-10T20:02:30;0.70;;;0.20;;
55756;SDS011;41676;44.610;44.078;2023-05-10T20:07:30;0.95;;;0.30;;
55756;SDS011;41676;44.610;44.078;2023-05-10T20:12:31;1.90;;;0.90;;
55756;SDS011;41676;44.610;44.078;2023-05-10T20:17:33;1.15;;;0.40;;
55756;SDS011;41676;44.610;44.078;2023-05-10T20:22:34;0.52;;;0.20;;
55756;SDS011;41676;44.610;44.078;2023-05-10T20:27:35;0.70;;;0.20;;
55756;SDS011;41676;44.610;44.078;2023-05-10T20:32:36;1.55;;;0.20;;
55756;SDS011;41676;44.610;44.078;2023-05-10T20:37:37;0.20;;;0.10;;
55756;SDS011;41676;44.610;44.078;2023-05-10T20:42:38;0.43;;;0.20;;
55756;SDS011;41676;44.610;44.078;2023-05-10T20:47:39;0.68;;;0.20;;
55756;SDS011;41676;44.610;44.078;2023-05-10T20:52:40;1.67;;;0.50;;
55756;SDS011;41676;44.610;44.078;2023-05-10T20:57:41;3.85;;;0.38;;
55756;SDS011;41676;44.610;44.078;2023-05-10T21:02:43;1.73;;;0.30;;
55756;SDS011;41676;44.610;44.078;2023-05-10T21:07:44;0.95;;;0.30;;
55756;SDS011;41676;44.610;44.078;2023-05-10T21:12:45;1.10;;;0.28;;
55756;SDS011;41676;44.610;44.078;2023-05-10T21:17:46;0.90;;;0.20;;
55756;SDS011;41676;44.610;44.078;2023-05-10T21:22:47;1.88;;;0.30;;
55756;SDS011;41676;44.610;44.078;2023-05-10T21:27:48;0.20;;;0.10;;
55756;SDS011;41676;44.610;44.078;2023-05-10T21:32:48;0.20;;;0.10;;
55756;SDS011;41676;44.610;44.078;2023-05-10T21:37:49;0.43;;;0.10;;
55756;SDS011;41676;44.610;44.078;2023-05-10T21:42:50;1.02;;;0.30;;
55756;SDS011;41676;44.610;44.078;2023-05-10T21:47:51;0.52;;;0.20;;
55756;SDS011;41676;44.610;44.078;2023-05-10T21:52:52;0.20;;;0.10;;
55756;SDS011;41676;44.610;44.078;2023-05-10T21:57:54;1.17;;;0.30;;
55756;SDS011;41676;44.610;44.078;2023-05-10T22:02:54;0.57;;;0.30;;
55756;SDS011;41676;44.610;44.078;2023-05-10T22:07:55;1.38;;;0.28;;
55756;SDS011;41676;44.610;44.078;2023-05-10T22:12:56;0.40;;;0.20;;
55756;SDS011;41676;44.610;44.078;2023-05-10T22:17:57;0.80;;;0.30;;
55756;SDS011;41676;44.610;44.078;2023-05-10T22:22:58;0.63;;;0.20;;
55756;SDS011;41676;44.610;44.078;2023-05-10T22:27:58;1.02;;;0.30;;
55756;SDS011;41676;44.610;44.078;2023-05-10T22:32:59;0.65;;;0.30;;
55756;SDS011;41676;44.610;44.078;2023-05-10T22:38:00;16.42;;;0.63;;
55756;SDS011;41676;44.610;44.078;2023-05-10T22:43:01;0.55;;;0.30;;
55756;SDS011;41676;44.610;44.078;2023-05-10T22:48:02;0.80;;;0.40;;
55756;SDS011;41676;44.610;44.078;2023-05-10T22:53:04;0.60;;;0.30;;
55756;SDS011;41676;44.610;44.078;2023-05-10T22:58:05;1.58;;;0.50;;
55756;SDS011;41676;44.610;44.078;2023-05-10T23:03:06;0.85;;;0.40;;
55756;SDS011;41676;44.610;44.078;2023-05-10T23:08:07;0.85;;;0.38;;
55756;SDS011;41676;44.610;44.078;2023-05-10T23:13:08;0.57;;;0.35;;
55756;SDS011;41676;44.610;44.078;2023-05-10T23:18:09;2.38;;;0.52;;
55756;SDS011;41676;44.610;44.078;2023-05-10T23:23:10;0.93;;;0.60;;
55756;SDS011;41676;44.610;44.078;2023-05-10T23:28:11;1.23;;;0.60;;
55756;SDS011;41676;44.610;44.078;2023-05-10T23:33:11;0.98;;;0.70;;
55756;SDS011;41676;44.610;44.078;2023-05-10T23:38:13;1.40;;;0.70;;
55756;SDS011;41676;44.610;44.078;2023-05-10T23:43:14;1.92;;;0.75;;
55756;SDS011;41676;44.610;44.078;2023-05-10T23:48:16;1.95;;;0.70;;
55756;SDS011;41676;44.610;44.078;2023-05-10T23:53:17;1.65;;;0.90;;
55756;SDS011;41676;44.610;44.078;2023-05-10T23:58:18;1.70;;;0.90;;
